TimeEDT,TemperatureF,Dew PointF,Humidity,Sea Level PressureIn,VisibilityMPH,Wind Direction,Wind SpeedMPH,Gust SpeedMPH,PrecipitationIn,Events,Conditions,WindDirDegrees,DateUTC
12:15 AM,62.6,62.6,100,30.07,10.0,Calm,Calm,-,N/A,,Clear,0,2013-07-26 04:15:00
12:35 AM,62.6,62.6,100,30.07,10.0,North,3.5,-,N/A,,Clear,10,2013-07-26 04:35:00
12:55 AM,60.8,60.8,100,30.07,10.0,Calm,Calm,-,N/A,,Clear,0,2013-07-26 04:55:00
1:15 AM,62.6,60.8,94,30.07,10.0,North,3.5,-,N/A,,Clear,10,2013-07-26 05:15:00
1:35 AM,60.8,60.8,100,30.07,10.0,North,3.5,-,N/A,,Clear,10,2013-07-26 05:35:00
1:55 AM,60.8,60.8,100,30.07,10.0,Calm,Calm,-,N/A,,Clear,0,2013-07-26 05:55:00
2:15 AM,60.8,60.8,100,30.07,10.0,Calm,Calm,-,N/A,,Clear,0,2013-07-26 06:15:00
2:35 AM,60.8,60.8,100,30.06,10.0,Calm,Calm,-,N/A,,Clear,0,2013-07-26 06:35:00
2:55 AM,60.8,60.8,100,30.06,10.0,NNE,3.5,-,N/A,,Clear,20,2013-07-26 06:55:00
3:15 AM,60.8,60.8,100,30.05,10.0,North,4.6,-,N/A,,Clear,10,2013-07-26 07:15:00
3:35 AM,60.8,60.8,100,30.05,10.0,Calm,Calm,-,N/A,,Clear,0,2013-07-26 07:35:00
3:55 AM,60.8,60.8,100,30.06,10.0,Calm,Calm,-,N/A,,Clear,0,2013-07-26 07:55:00
4:15 AM,60.8,60.8,100,30.07,10.0,Calm,Calm,-,N/A,,Clear,0,2013-07-26 08:15:00
4:35 AM,59.0,59.0,100,30.07,10.0,North,3.5,-,N/A,,Clear,350,2013-07-26 08:35:00
4:55 AM,60.8,60.8,100,30.07,10.0,North,3.5,-,N/A,,Clear,350,2013-07-26 08:55:00
5:15 AM,59.0,59.0,100,30.07,10.0,Calm,Calm,-,N/A,,Clear,0,2013-07-26 09:15:00
5:35 AM,59.0,59.0,100,30.08,10.0,Calm,Calm,-,N/A,,Clear,0,2013-07-26 09:35:00
5:55 AM,59.0,59.0,100,30.08,10.0,Calm,Calm,-,N/A,,Clear,0,2013-07-26 09:55:00
6:15 AM,57.2,57.2,100,30.08,10.0,Calm,Calm,-,N/A,,Clear,0,2013-07-26 10:15:00
6:35 AM,57.2,57.2,100,30.09,10.0,Calm,Calm,-,N/A,,Clear,0,2013-07-26 10:35:00
6:55 AM,57.2,57.2,100,30.09,10.0,Calm,Calm,-,N/A,,Clear,0,2013-07-26 10:55:00
7:15 AM,60.8,60.8,100,30.09,10.0,Calm,Calm,-,N/A,,Clear,0,2013-07-26 11:15:00
7:35 AM,62.6,62.6,100,30.10,10.0,Calm,Calm,-,N/A,,Clear,0,2013-07-26 11:35:00
7:55 AM,64.4,62.6,94,30.11,10.0,Calm,Calm,-,N/A,,Clear,0,2013-07-26 11:55:00
8:15 AM,66.2,62.6,88,30.12,10.0,Calm,Calm,-,N/A,,Clear,0,2013-07-26 12:15:00
8:35 AM,68.0,62.6,83,30.12,10.0,Calm,Calm,-,N/A,,Clear,0,2013-07-26 12:35:00
8:55 AM,69.8,62.6,78,30.12,10.0,Calm,Calm,-,N/A,,Clear,0,2013-07-26 12:55:00
9:15 AM,71.6,62.6,73,30.13,10.0,Calm,Calm,-,N/A,,Clear,0,2013-07-26 13:15:00
9:35 AM,71.6,62.6,73,30.13,10.0,Calm,Calm,-,N/A,,Clear,0,2013-07-26 13:35:00
9:55 AM,73.4,60.8,65,30.12,10.0,Calm,Calm,-,N/A,,Clear,0,2013-07-26 13:55:00
10:15 AM,73.4,60.8,65,30.12,10.0,Calm,Calm,-,N/A,,Clear,0,2013-07-26 14:15:00
10:35 AM,75.2,60.8,61,30.12,10.0,Calm,Calm,-,N/A,,Clear,0,2013-07-26 14:35:00
10:55 AM,75.2,62.6,65,30.11,10.0,Calm,Calm,-,N/A,,Clear,0,2013-07-26 14:55:00
11:15 AM,75.2,60.8,61,30.11,10.0,Calm,Calm,-,N/A,,Clear,0,2013-07-26 15:15:00
11:35 AM,77.0,60.8,57,30.11,10.0,NW,3.5,-,N/A,,Clear,310,2013-07-26 15:35:00
11:55 AM,75.2,60.8,61,30.11,10.0,Calm,Calm,-,N/A,,Clear,0,2013-07-26 15:55:00
12:15 PM,78.8,59.0,51,30.10,10.0,Calm,Calm,-,N/A,,Clear,0,2013-07-26 16:15:00
12:35 PM,78.8,60.8,54,30.10,10.0,Calm,Calm,-,N/A,,Mostly Cloudy,0,2013-07-26 16:35:00
12:55 PM,80.6,57.2,45,30.10,10.0,Calm,Calm,-,N/A,,Scattered Clouds,0,2013-07-26 16:55:00
1:15 PM,80.6,57.2,45,30.10,10.0,WSW,3.5,-,N/A,,Clear,250,2013-07-26 17:15:00
1:35 PM,78.8,57.2,47,30.09,10.0,Calm,Calm,-,N/A,,Scattered Clouds,0,2013-07-26 17:35:00
1:55 PM,80.6,57.2,45,30.09,10.0,WNW,4.6,-,N/A,,Clear,290,2013-07-26 17:55:00
2:15 PM,80.6,59.0,48,30.09,10.0,NNW,4.6,-,N/A,,Clear,340,2013-07-26 18:15:00
2:35 PM,80.6,59.0,48,30.08,10.0,NW,3.5,-,N/A,,Clear,320,2013-07-26 18:35:00
2:55 PM,82.4,59.0,45,30.08,10.0,Calm,Calm,-,N/A,,Clear,0,2013-07-26 18:55:00
3:15 PM,82.4,60.8,48,30.07,10.0,SW,3.5,-,N/A,,Clear,230,2013-07-26 19:15:00
3:35 PM,82.4,60.8,48,30.07,10.0,South,3.5,-,N/A,,Clear,180,2013-07-26 19:35:00
3:55 PM,82.4,60.8,48,30.06,10.0,Calm,Calm,-,N/A,,Clear,0,2013-07-26 19:55:00
4:15 PM,82.4,59.0,45,30.06,10.0,Calm,Calm,-,N/A,,Clear,0,2013-07-26 20:15:00
4:35 PM,84.2,60.8,45,30.06,10.0,SSE,5.8,-,N/A,,Scattered Clouds,150,2013-07-26 20:35:00
4:55 PM,82.4,62.6,51,30.05,10.0,Calm,Calm,-,N/A,,Scattered Clouds,0,2013-07-26 20:55:00
5:15 PM,82.4,62.6,51,30.05,10.0,South,4.6,-,N/A,,Scattered Clouds,170,2013-07-26 21:15:00
5:35 PM,80.6,62.6,54,30.05,10.0,Calm,Calm,-,N/A,,Clear,0,2013-07-26 21:35:00
5:55 PM,80.6,64.4,58,30.04,10.0,Calm,Calm,-,N/A,,Clear,0,2013-07-26 21:55:00
6:15 PM,80.6,64.4,58,30.04,10.0,Calm,Calm,-,N/A,,Clear,0,2013-07-26 22:15:00
6:35 PM,82.4,62.6,51,30.04,10.0,Calm,Calm,-,N/A,,Clear,0,2013-07-26 22:35:00
6:55 PM,80.6,64.4,58,30.04,10.0,Calm,Calm,-,N/A,,Clear,0,2013-07-26 22:55:00
7:15 PM,80.6,64.4,58,30.04,10.0,Calm,Calm,-,N/A,,Clear,0,2013-07-26 23:15:00
7:35 PM,78.8,66.2,65,30.04,10.0,Calm,Calm,-,N/A,,Clear,0,2013-07-26 23:35:00
7:55 PM,78.8,66.2,65,30.04,10.0,Calm,Calm,-,N/A,,Clear,0,2013-07-26 23:55:00
8:15 PM,75.2,66.2,73,30.04,10.0,Calm,Calm,-,N/A,,Clear,0,2013-07-27 00:15:00
8:35 PM,71.6,69.8,94,30.05,10.0,Calm,Calm,-,N/A,,Clear,0,2013-07-27 00:35:00
8:55 PM,69.8,69.8,100,30.05,10.0,Calm,Calm,-,N/A,,Clear,0,2013-07-27 00:55:00
9:15 PM,68.0,68.0,100,30.05,10.0,Calm,Calm,-,N/A,,Clear,0,2013-07-27 01:15:00
9:35 PM,68.0,68.0,100,30.06,10.0,Calm,Calm,-,N/A,,Clear,0,2013-07-27 01:35:00
9:55 PM,66.2,66.2,100,30.06,10.0,Calm,Calm,-,N/A,,Clear,0,2013-07-27 01:55:00
10:15 PM,66.2,66.2,100,30.07,10.0,Calm,Calm,-,N/A,,Clear,0,2013-07-27 02:15:00
10:35 PM,66.2,66.2,100,30.07,10.0,Calm,Calm,-,N/A,,Clear,0,2013-07-27 02:35:00
10:55 PM,66.2,66.2,100,30.07,10.0,Calm,Calm,-,N/A,,Clear,0,2013-07-27 02:55:00
11:15 PM,66.2,66.2,100,30.08,10.0,Calm,Calm,-,N/A,,Clear,0,2013-07-27 03:15:00
11:35 PM,66.2,66.2,100,30.08,10.0,Calm,Calm,-,N/A,,Scattered Clouds,0,2013-07-27 03:35:00
11:55 PM,66.2,66.2,100,30.07,10.0,Calm,Calm,-,N/A,,Mostly Cloudy,0,2013-07-27 03:55:00